createdAt,value
2019-02-21T00:01:07.915Z,4.17
2019-02-21T00:03:36.961Z,4.57
2019-02-21T00:06:05.780Z,4.57
2019-02-21T00:08:34.649Z,5.03
2019-02-21T00:11:03.510Z,5.27
2019-02-21T00:13:32.348Z,5.10
2019-02-21T00:16:01.197Z,5.20
2019-02-21T00:18:30.063Z,5.73
2019-02-21T00:20:58.878Z,5.77
2019-02-21T00:23:27.755Z,5.70
2019-02-21T00:25:56.615Z,5.47
2019-02-21T00:28:25.439Z,6.17
2019-02-21T00:30:54.298Z,5.90
2019-02-21T00:33:23.156Z,6.00
2019-02-21T00:35:51.987Z,5.70
2019-02-21T00:38:20.855Z,6.73
2019-02-21T00:40:49.720Z,5.80
2019-02-21T00:43:18.542Z,5.50
2019-02-21T00:45:47.406Z,5.97
2019-02-21T00:48:16.271Z,6.37
2019-02-21T00:50:45.108Z,6.50
2019-02-21T00:53:13.966Z,6.80
2019-02-21T00:55:42.826Z,6.43
2019-02-21T00:58:11.655Z,5.53
2019-02-21T01:00:46.629Z,6.53
2019-02-21T01:03:11.174Z,7.37
2019-02-21T01:05:40.067Z,6.07
2019-02-21T01:08:09.267Z,6.13
2019-02-21T01:10:38.134Z,6.70
2019-02-21T01:13:07.047Z,6.40
2019-02-21T01:15:35.939Z,6.70
2019-02-21T01:18:04.830Z,6.70
2019-02-21T01:20:33.724Z,6.63
2019-02-21T01:23:02.817Z,6.53
2019-02-21T01:25:31.708Z,6.80
2019-02-21T01:28:00.572Z,6.67
2019-02-21T01:30:29.462Z,7.53
2019-02-21T01:33:00.240Z,7.17
2019-02-21T01:35:28.912Z,6.53
2019-02-21T01:37:57.775Z,7.00
2019-02-21T01:40:26.693Z,6.63
2019-02-21T01:42:55.588Z,7.63
2019-02-21T01:45:24.475Z,7.57
2019-02-21T01:47:53.338Z,8.63
2019-02-21T01:50:22.231Z,8.40
2019-02-21T01:52:51.149Z,8.10
2019-02-21T01:55:20.038Z,9.27
2019-02-21T01:57:48.935Z,8.17
2019-02-21T02:00:17.823Z,8.63
2019-02-21T02:02:48.592Z,8.30
2019-02-21T02:05:17.243Z,8.67
2019-02-21T02:07:46.137Z,9.37
2019-02-21T02:10:15.026Z,10.20
2019-02-21T02:12:43.917Z,9.00
2019-02-21T02:15:12.808Z,8.37
2019-02-21T02:17:41.702Z,8.73
2019-02-21T02:20:10.590Z,8.27
2019-02-21T02:22:39.481Z,8.20
2019-02-21T02:25:08.348Z,8.17
2019-02-21T02:27:37.263Z,8.23
2019-02-21T02:30:07.812Z,7.77
2019-02-21T02:32:36.788Z,8.90
2019-02-21T02:35:06.812Z,7.17
2019-02-21T02:37:35.697Z,8.33
2019-02-21T02:40:04.997Z,7.37
2019-02-21T02:42:33.859Z,7.73
2019-02-21T02:45:02.752Z,8.57
2019-02-21T02:47:31.644Z,7.93
2019-02-21T02:50:00.604Z,8.10
2019-02-21T02:52:29.839Z,7.80
2019-02-21T02:54:58.754Z,8.67
2019-02-21T02:57:27.620Z,7.93
2019-02-21T02:59:56.542Z,7.77
2019-02-21T03:02:25.428Z,8.03
2019-02-21T03:04:54.321Z,7.97
2019-02-21T03:07:24.179Z,7.47
2019-02-21T03:09:53.122Z,7.37
2019-02-21T03:12:22.016Z,7.77
2019-02-21T03:14:50.907Z,7.80
2019-02-21T03:17:19.797Z,8.70
2019-02-21T03:19:48.694Z,7.67
2019-02-21T03:22:17.580Z,8.33
2019-02-21T03:24:46.472Z,8.07
2019-02-21T03:27:15.363Z,8.10
2019-02-21T03:29:44.254Z,8.70
2019-02-21T03:32:13.131Z,7.77
2019-02-21T03:34:42.037Z,8.23
2019-02-21T03:37:10.946Z,8.23
2019-02-21T03:39:39.920Z,8.40
2019-02-21T03:42:09.194Z,8.60
2019-02-21T03:44:38.154Z,7.93
2019-02-21T03:47:07.107Z,9.07
2019-02-21T03:49:35.998Z,8.63
2019-02-21T03:52:04.891Z,8.10
2019-02-21T03:54:33.781Z,9.03
2019-02-21T03:57:02.671Z,7.87
2019-02-21T03:59:31.562Z,8.00
2019-02-21T04:02:05.154Z,7.90
2019-02-21T04:04:30.984Z,7.63
2019-02-21T04:06:59.878Z,7.77
2019-02-21T04:09:28.765Z,8.30
2019-02-21T04:16:09.447Z,6.63
2019-02-21T04:18:38.566Z,7.27
2019-02-21T04:21:07.451Z,7.27
2019-02-21T04:23:36.442Z,7.33
2019-02-21T04:26:05.336Z,7.57
2019-02-21T04:28:34.326Z,7.40
2019-02-21T04:31:03.197Z,7.30
2019-02-21T04:33:34.289Z,7.70
2019-02-21T04:36:02.638Z,9.23
2019-02-21T04:38:31.530Z,8.37
2019-02-21T04:41:00.524Z,9.37
2019-02-21T04:43:29.415Z,8.57
2019-02-21T04:45:58.311Z,9.00
2019-02-21T04:48:28.271Z,8.73
2019-02-21T04:50:57.215Z,9.50
2019-02-21T04:53:26.108Z,10.63
2019-02-21T04:55:54.999Z,10.40
2019-02-21T04:58:23.888Z,10.40
2019-02-21T05:00:52.781Z,8.67
2019-02-21T05:03:21.652Z,8.90
2019-02-21T05:05:50.536Z,8.83
2019-02-21T05:08:19.453Z,8.87
2019-02-21T05:10:48.345Z,8.93
2019-02-21T05:13:17.240Z,8.60
2019-02-21T05:15:46.126Z,9.87
2019-02-21T05:18:15.020Z,10.00
2019-02-21T05:20:43.909Z,8.77
2019-02-21T05:23:12.800Z,9.80
2019-02-21T05:25:41.692Z,9.53
2019-02-21T05:28:28.715Z,8.57
2019-02-21T05:30:59.238Z,9.10
2019-02-21T05:33:38.777Z,9.40
2019-02-21T05:36:11.970Z,9.97
2019-02-21T05:38:58.883Z,11.03
2019-02-21T05:41:38.425Z,8.87
2019-02-21T05:44:08.928Z,9.57
2019-02-21T05:46:42.557Z,10.27
2019-02-21T05:49:15.725Z,11.53
2019-02-21T05:51:46.250Z,10.63
2019-02-21T05:54:16.810Z,9.47
2019-02-21T05:56:53.513Z,10.77
2019-02-21T05:59:35.995Z,11.03
2019-02-21T06:02:09.468Z,10.47
2019-02-21T06:04:40.024Z,10.67
2019-02-21T06:07:28.676Z,10.50
2019-02-21T06:09:59.307Z,10.23
2019-02-21T06:12:33.523Z,11.43
2019-02-21T06:15:04.768Z,10.90
2019-02-21T06:17:37.939Z,10.57
2019-02-21T06:20:27.333Z,10.43
2019-02-21T06:22:57.879Z,10.33
2019-02-21T06:25:34.332Z,11.37
2019-02-21T06:28:13.873Z,10.73
2019-02-21T06:30:50.247Z,11.50
2019-02-21T06:33:19.132Z,11.67
2019-02-21T06:35:48.001Z,10.83
2019-02-21T06:38:22.983Z,11.20
2019-02-21T06:40:51.856Z,9.83
2019-02-21T06:43:20.688Z,10.47
2019-02-21T06:45:49.547Z,11.53
2019-02-21T06:48:18.423Z,11.57
2019-02-21T06:50:47.794Z,11.07
2019-02-21T06:53:16.726Z,12.00
2019-02-21T06:55:45.593Z,11.90
2019-02-21T06:58:14.418Z,11.23
2019-02-21T07:00:46.106Z,12.73
2019-02-21T07:03:16.082Z,11.87
2019-02-21T07:05:44.670Z,13.40
2019-02-21T07:08:13.536Z,12.73
2019-02-21T07:10:42.368Z,12.97
2019-02-21T07:13:11.239Z,13.50
2019-02-21T07:15:40.107Z,13.53
2019-02-21T07:18:11.100Z,14.20
2019-02-21T07:20:39.873Z,14.70
2019-02-21T07:23:11.231Z,13.30
2019-02-21T07:25:46.755Z,13.97
2019-02-21T07:28:16.277Z,13.33
2019-02-21T07:30:45.283Z,13.53
2019-02-21T07:33:14.148Z,13.30
2019-02-21T07:35:43.020Z,13.00
2019-02-21T07:38:11.846Z,13.83
2019-02-21T07:40:40.718Z,13.60
2019-02-21T07:43:09.651Z,13.13
2019-02-21T07:45:38.467Z,13.70
2019-02-21T07:48:07.339Z,12.73
2019-02-21T07:50:36.217Z,12.40
2019-02-21T07:53:05.043Z,13.03
2019-02-21T07:55:33.911Z,14.23
2019-02-21T07:58:04.000Z,12.83
2019-02-21T08:00:33.106Z,12.77
2019-02-21T08:03:01.975Z,13.40
2019-02-21T08:05:30.858Z,14.73
2019-02-21T08:07:59.683Z,12.77
2019-02-21T08:10:33.465Z,13.80
2019-02-21T08:12:59.054Z,15.03
2019-02-21T08:15:27.977Z,16.20
2019-02-21T08:17:56.875Z,16.13
2019-02-21T08:20:33.465Z,16.40
2019-02-21T08:22:56.213Z,16.93
2019-02-21T08:25:25.083Z,18.37
2019-02-21T08:27:53.947Z,19.23
2019-02-21T08:30:25.338Z,19.23
2019-02-21T08:33:12.243Z,18.30
2019-02-21T08:35:41.111Z,17.00
2019-02-21T08:38:12.038Z,15.00
2019-02-21T08:40:40.467Z,14.80
2019-02-21T08:43:09.339Z,14.00
2019-02-21T08:45:38.166Z,13.03
2019-02-21T08:48:07.036Z,13.63
2019-02-21T08:50:35.903Z,12.53
2019-02-21T08:53:04.766Z,11.27
2019-02-21T08:55:33.619Z,12.17
2019-02-21T08:58:02.488Z,12.17
2019-02-21T09:00:31.861Z,13.00
2019-02-21T09:03:00.984Z,12.17
2019-02-21T09:05:29.851Z,12.67
2019-02-21T09:07:58.714Z,13.20
2019-02-21T09:10:27.890Z,13.13
2019-02-21T09:12:57.051Z,13.33
2019-02-21T09:15:25.886Z,12.67
2019-02-21T09:17:54.751Z,12.70
2019-02-21T09:20:23.620Z,12.73
2019-02-21T09:22:52.447Z,12.20
2019-02-21T09:25:21.319Z,12.87
2019-02-21T09:27:50.190Z,12.23
2019-02-21T09:30:19.525Z,12.23
2019-02-21T09:32:48.391Z,12.77
2019-02-21T09:35:17.269Z,12.40
2019-02-21T09:37:46.102Z,13.00
2019-02-21T09:40:20.990Z,11.90
2019-02-21T09:42:49.867Z,12.17
2019-02-21T09:45:19.303Z,12.50
2019-02-21T09:47:48.177Z,12.67
2019-02-21T09:50:17.042Z,12.73
2019-02-21T09:52:45.870Z,13.03
2019-02-21T09:55:20.792Z,12.47
2019-02-21T09:57:49.659Z,13.10
2019-02-21T10:00:20.304Z,13.27
2019-02-21T10:02:49.180Z,12.57
2019-02-21T10:05:18.065Z,12.83
2019-02-21T10:07:46.887Z,12.80
2019-02-21T10:10:19.663Z,13.30
2019-02-21T10:12:48.526Z,14.07
2019-02-21T10:15:17.354Z,13.37
2019-02-21T10:17:46.242Z,13.87
2019-02-21T10:20:22.036Z,14.17
2019-02-21T10:22:50.906Z,12.53
2019-02-21T10:25:23.278Z,13.30
2019-02-21T10:27:52.303Z,12.73
2019-02-21T10:30:23.193Z,12.93
2019-02-21T10:32:52.059Z,12.30
2019-02-21T10:35:20.890Z,12.40
2019-02-21T10:37:49.792Z,12.60
2019-02-21T10:40:18.633Z,12.33
2019-02-21T10:42:54.434Z,10.60
2019-02-21T10:45:23.836Z,9.57
2019-02-21T10:47:52.663Z,10.13
2019-02-21T10:50:21.934Z,10.77
2019-02-21T10:52:50.811Z,10.20
2019-02-21T10:55:19.851Z,10.00
2019-02-21T10:57:48.723Z,10.23
2019-02-21T11:00:26.590Z,10.60
2019-02-21T11:02:55.463Z,10.13
2019-02-21T11:05:24.341Z,10.30
2019-02-21T11:07:53.169Z,9.80
2019-02-21T11:10:24.156Z,9.30
2019-02-21T11:12:53.012Z,9.20
2019-02-21T11:15:23.843Z,9.07
2019-02-21T11:17:52.716Z,9.47
2019-02-21T11:20:22.287Z,8.57
2019-02-21T11:22:51.118Z,9.10
2019-02-21T11:25:19.991Z,9.43
2019-02-21T11:27:48.863Z,9.20
2019-02-21T11:30:19.220Z,9.67
2019-02-21T11:32:48.081Z,9.90
2019-02-21T11:35:17.236Z,8.87
2019-02-21T11:37:47.346Z,9.27
2019-02-21T11:40:17.745Z,9.00
2019-02-21T11:42:46.823Z,9.07
2019-02-21T11:45:16.938Z,9.63
2019-02-21T11:47:47.337Z,9.27
2019-02-21T11:50:17.698Z,9.23
2019-02-21T11:52:46.544Z,10.07
2019-02-21T11:55:18.039Z,10.60
2019-02-21T11:57:46.920Z,9.70
2019-02-21T12:00:20.895Z,10.33
2019-02-21T12:02:49.766Z,9.57
2019-02-21T12:05:30.227Z,10.50
2019-02-21T12:07:49.143Z,10.77
2019-02-21T12:10:18.130Z,11.13
2019-02-21T12:12:46.955Z,10.80
2019-02-21T12:15:16.931Z,10.13
2019-02-21T12:17:45.867Z,10.13
2019-02-21T12:20:19.310Z,10.10
2019-02-21T12:22:48.479Z,9.80
2019-02-21T12:25:19.074Z,10.83
2019-02-21T12:27:47.899Z,10.50
2019-02-21T12:30:19.136Z,10.30
2019-02-21T12:32:48.032Z,9.20
2019-02-21T12:35:16.868Z,8.33
2019-02-21T12:37:45.747Z,8.20
2019-02-21T12:40:22.555Z,6.57
2019-02-21T12:42:51.412Z,6.67
2019-02-21T12:45:24.966Z,7.00
2019-02-21T12:47:54.291Z,6.57
2019-02-21T12:50:23.319Z,6.60
2019-02-21T12:52:52.127Z,6.83
2019-02-21T12:55:27.571Z,6.70
2019-02-21T12:57:51.536Z,6.70
2019-02-21T13:00:21.563Z,6.00
2019-02-21T13:02:50.423Z,7.13
2019-02-21T13:05:19.301Z,6.93
2019-02-21T13:07:48.119Z,7.60
2019-02-21T13:10:21.891Z,8.10
2019-02-21T13:12:50.767Z,7.80
2019-02-21T13:15:19.593Z,7.77
2019-02-21T13:17:50.846Z,8.93
2019-02-21T13:20:19.067Z,6.97
2019-02-21T13:22:47.950Z,7.37
2019-02-21T13:25:18.157Z,6.67
2019-02-21T13:27:47.026Z,6.63
2019-02-21T13:30:17.151Z,6.77
2019-02-21T13:32:46.028Z,6.77
2019-02-21T13:35:14.906Z,7.10
2019-02-21T13:37:43.748Z,7.13
2019-02-21T13:40:16.434Z,6.47
2019-02-21T13:42:45.317Z,6.17
2019-02-21T13:45:17.580Z,7.17
2019-02-21T13:47:46.052Z,6.70
2019-02-21T13:50:19.455Z,7.13
2019-02-21T13:52:48.278Z,6.60
2019-02-21T13:55:17.155Z,7.87
2019-02-21T13:57:48.631Z,6.97
2019-02-21T14:00:21.819Z,7.00
2019-02-21T14:02:54.035Z,7.30
2019-02-21T14:05:22.921Z,7.10
2019-02-21T14:07:51.775Z,6.97
2019-02-21T14:10:20.678Z,7.73
2019-02-21T14:12:49.515Z,7.97
2019-02-21T14:15:26.946Z,8.30
2019-02-21T14:17:55.952Z,8.03
2019-02-21T14:20:24.786Z,8.40
2019-02-21T14:22:53.651Z,7.87
2019-02-21T14:25:22.520Z,8.03
2019-02-21T14:27:51.361Z,7.97
2019-02-21T14:30:21.702Z,8.30
2019-02-21T14:32:59.526Z,8.30
2019-02-21T14:35:28.401Z,8.00
2019-02-21T14:37:57.511Z,7.90
2019-02-21T14:40:26.321Z,8.03
2019-02-21T14:42:55.188Z,8.10
2019-02-21T14:45:26.975Z,7.83
2019-02-21T14:47:55.798Z,7.70
2019-02-21T14:50:24.685Z,8.00
2019-02-21T14:52:53.571Z,7.43
2019-02-21T14:55:22.392Z,6.73
2019-02-21T14:57:51.306Z,7.73
2019-02-21T15:00:24.333Z,8.33
2019-02-21T15:02:53.232Z,7.80
2019-02-21T15:05:27.923Z,8.83
2019-02-21T15:07:56.797Z,9.83
2019-02-21T15:10:25.681Z,9.27
2019-02-21T15:12:54.563Z,10.37
2019-02-21T15:15:25.826Z,9.57
2019-02-21T15:18:06.649Z,9.30
2019-02-21T15:20:35.848Z,9.03
2019-02-21T15:22:55.871Z,8.97
2019-02-21T15:25:24.744Z,8.13
2019-02-21T15:27:53.601Z,7.57
2019-02-21T15:30:24.495Z,9.00
2019-02-21T15:32:53.375Z,8.20
2019-02-21T15:35:22.248Z,8.20
2019-02-21T15:37:51.149Z,8.43
2019-02-21T15:40:19.992Z,8.60
2019-02-21T15:42:48.886Z,9.07
2019-02-21T15:45:25.365Z,7.97
2019-02-21T15:47:54.241Z,7.97
2019-02-21T15:50:23.175Z,8.00
2019-02-21T15:52:54.031Z,8.63
2019-02-21T15:55:23.264Z,8.50
2019-02-21T15:58:03.312Z,7.43
2019-02-21T16:00:23.940Z,7.93
2019-02-21T16:02:52.924Z,8.33
2019-02-21T16:05:21.771Z,8.40
2019-02-21T16:07:50.685Z,8.77
2019-02-21T16:10:22.463Z,8.23
2019-02-21T16:12:51.617Z,8.90
2019-02-21T16:15:20.612Z,8.13
2019-02-21T16:17:49.432Z,8.13
2019-02-21T16:20:19.775Z,7.97
2019-02-21T16:22:48.636Z,9.07
2019-02-21T16:25:26.212Z,8.30
2019-02-21T16:27:55.598Z,9.03
2019-02-21T16:30:24.843Z,8.23
2019-02-21T16:32:53.675Z,8.87
2019-02-21T16:35:22.572Z,8.73
2019-02-21T16:37:51.409Z,8.97
2019-02-21T16:40:20.698Z,8.93
2019-02-21T16:42:49.533Z,8.90
2019-02-21T16:45:20.029Z,8.93
2019-02-21T16:47:49.263Z,9.67
2019-02-21T16:50:28.838Z,9.20
2019-02-21T16:52:48.663Z,9.00
2019-02-21T16:55:19.612Z,11.95
2019-02-21T16:57:48.517Z,10.07
2019-02-21T17:00:19.063Z,9.30
2019-02-21T17:02:47.944Z,9.60
2019-02-21T17:05:16.995Z,10.20
2019-02-21T17:07:45.979Z,9.80
2019-02-21T17:10:16.133Z,10.10
2019-02-21T17:12:45.064Z,10.43
2019-02-21T17:15:16.888Z,10.00
2019-02-21T17:17:45.806Z,10.77
2019-02-21T17:20:22.460Z,11.03
2019-02-21T17:22:51.307Z,10.83
2019-02-21T17:25:20.232Z,10.53
2019-02-21T17:27:50.811Z,11.40
2019-02-21T17:30:20.128Z,10.20
2019-02-21T17:32:48.966Z,10.77
2019-02-21T17:35:17.824Z,12.13
2019-02-21T17:37:46.650Z,11.43
2019-02-21T17:40:21.149Z,10.37
2019-02-21T17:42:50.007Z,10.47
2019-02-21T17:45:18.883Z,10.40
2019-02-21T17:47:47.743Z,10.97
2019-02-21T17:50:20.271Z,10.50
2019-02-21T17:52:49.159Z,10.37
2019-02-21T17:55:18.496Z,10.50
2019-02-21T17:57:47.462Z,11.73
2019-02-21T18:00:30.865Z,11.17
2019-02-21T18:02:59.754Z,11.57
2019-02-21T18:05:28.608Z,11.77
2019-02-21T18:07:57.500Z,11.03
2019-02-21T18:10:26.351Z,12.70
2019-02-21T18:12:55.243Z,11.20
2019-02-21T18:15:25.821Z,10.80
2019-02-21T18:17:54.708Z,10.27
2019-02-21T18:20:23.763Z,9.37
2019-02-21T18:22:52.606Z,9.77
2019-02-21T18:25:45.104Z,10.40
2019-02-21T18:28:13.983Z,10.80
2019-02-21T18:30:42.842Z,11.70
2019-02-21T18:33:14.345Z,11.40
2019-02-21T18:35:43.196Z,11.43
2019-02-21T18:38:12.085Z,11.57
2019-02-21T18:40:40.928Z,11.03
2019-02-21T18:43:10.221Z,10.23
2019-02-21T18:45:39.109Z,10.37
2019-02-21T18:48:08.008Z,9.73
2019-02-21T18:50:38.548Z,10.27
2019-02-21T18:53:07.384Z,10.33
2019-02-21T18:55:36.236Z,11.73
2019-02-21T18:58:05.134Z,11.33
2019-02-21T19:00:33.975Z,10.43
2019-02-21T19:03:02.856Z,10.83
2019-02-21T19:05:35.880Z,10.43
2019-02-21T19:08:05.418Z,10.90
2019-02-21T19:10:32.815Z,10.70
2019-02-21T19:13:01.655Z,10.33
2019-02-21T19:15:30.731Z,10.80
2019-02-21T19:17:59.608Z,10.53
2019-02-21T19:20:28.449Z,9.87
2019-02-21T19:22:57.333Z,10.07
2019-02-21T19:25:26.237Z,10.70
2019-02-21T19:27:55.050Z,10.87
2019-02-21T19:30:33.005Z,10.43
2019-02-21T19:33:01.814Z,11.30
2019-02-21T19:35:30.685Z,11.13
2019-02-21T19:38:09.913Z,11.67
2019-02-21T19:40:30.035Z,10.90
2019-02-21T19:42:58.912Z,10.97
2019-02-21T19:45:27.798Z,12.23
2019-02-21T19:47:56.611Z,12.00
2019-02-21T19:50:26.783Z,10.87
2019-02-21T19:52:55.621Z,10.67
2019-02-21T19:55:24.523Z,11.67
2019-02-21T19:57:53.383Z,12.13
2019-02-21T20:00:25.836Z,11.43
2019-02-21T20:02:55.290Z,12.73
2019-02-21T20:05:24.332Z,12.27
2019-02-21T20:07:53.184Z,12.60
2019-02-21T20:10:22.286Z,12.07
2019-02-21T20:12:51.792Z,12.23
2019-02-21T20:15:20.682Z,11.90
2019-02-21T20:17:49.577Z,12.63
2019-02-21T20:20:20.743Z,11.70
2019-02-21T20:22:49.583Z,12.33
2019-02-21T20:25:28.908Z,11.60
2019-02-21T20:27:57.923Z,11.33
2019-02-21T20:30:26.891Z,12.80
2019-02-21T20:32:58.438Z,12.00
2019-02-21T20:35:39.527Z,13.07
2019-02-21T20:38:05.672Z,13.17
2019-02-21T20:40:34.784Z,13.37
2019-02-21T20:43:03.823Z,14.67
2019-02-21T20:45:32.649Z,15.67
2019-02-21T20:48:04.429Z,14.80
2019-02-21T20:50:33.524Z,16.17
2019-02-21T20:53:08.056Z,15.80
2019-02-21T20:55:43.845Z,13.93
2019-02-21T20:58:11.743Z,14.77
2019-02-21T21:00:40.988Z,15.93
2019-02-21T21:03:10.403Z,14.33
2019-02-21T21:05:40.478Z,14.30
2019-02-21T21:08:09.343Z,14.93
2019-02-21T21:10:38.239Z,15.67
2019-02-21T21:13:07.325Z,14.47
2019-02-21T21:15:36.166Z,14.20
2019-02-21T21:18:05.139Z,13.33
2019-02-21T21:20:34.083Z,15.20
2019-02-21T21:23:03.271Z,13.93
2019-02-21T21:25:32.547Z,13.93
2019-02-21T21:28:01.483Z,14.23
2019-02-21T21:30:30.320Z,12.93
2019-02-21T21:32:59.192Z,12.43
2019-02-21T21:35:28.152Z,12.83
2019-02-21T21:37:57.033Z,12.53
2019-02-21T21:40:25.863Z,12.63
2019-02-21T21:42:54.755Z,12.30
2019-02-21T21:45:23.617Z,12.57
2019-02-21T21:47:52.477Z,12.90
2019-02-21T21:50:21.412Z,13.43
2019-02-21T21:52:50.276Z,12.87
2019-02-21T21:55:19.109Z,12.20
2019-02-21T21:57:48.031Z,13.37
2019-02-21T22:00:19.539Z,13.03
2019-02-21T22:02:48.410Z,12.80
2019-02-21T22:05:17.251Z,12.87
2019-02-21T22:07:46.130Z,12.00
2019-02-21T22:10:15.887Z,12.60
2019-02-21T22:12:44.734Z,12.67
2019-02-21T22:15:21.543Z,12.00
2019-02-21T22:17:50.411Z,12.97
2019-02-21T22:20:19.276Z,11.53
2019-02-21T22:22:48.123Z,12.70
2019-02-21T22:25:16.982Z,11.80
2019-02-21T22:27:47.175Z,12.83
2019-02-21T22:30:17.779Z,12.60
2019-02-21T22:32:46.652Z,13.17
2019-02-21T22:35:15.660Z,12.77
2019-02-21T22:37:44.567Z,12.60
2019-02-21T22:40:17.741Z,12.87
2019-02-21T22:42:46.567Z,12.37
2019-02-21T22:45:15.447Z,13.20
2019-02-21T22:47:44.437Z,12.90
2019-02-21T22:50:17.382Z,12.47
2019-02-21T22:52:46.251Z,11.53
2019-02-21T22:55:15.219Z,11.67
2019-02-21T22:57:44.045Z,12.80
2019-02-21T23:00:32.250Z,12.43
2019-02-21T23:03:02.187Z,12.70
2019-02-21T23:05:50.765Z,12.50
2019-02-21T23:08:40.647Z,11.43
2019-02-21T23:11:09.648Z,11.93
2019-02-21T23:13:38.516Z,12.67
2019-02-21T23:16:07.342Z,14.20
2019-02-21T23:18:36.207Z,12.97
2019-02-21T23:21:05.070Z,12.63
2019-02-21T23:23:33.905Z,12.73
2019-02-21T23:26:02.782Z,13.37
2019-02-21T23:28:31.647Z,13.40
2019-02-21T23:31:00.479Z,12.97
2019-02-21T23:33:30.447Z,12.47
2019-02-21T23:35:59.310Z,13.10
2019-02-21T23:38:28.143Z,12.30
2019-02-21T23:40:57.010Z,13.13
2019-02-21T23:43:25.883Z,12.37
2019-02-21T23:45:54.721Z,13.57
2019-02-21T23:48:23.599Z,13.50
2019-02-21T23:50:52.471Z,12.83
2019-02-21T23:53:21.307Z,13.47
2019-02-21T23:55:50.175Z,13.73
2019-02-21T23:58:19.048Z,13.57
